Latest Weather Observations for Smithton

IDT60801

Issued at 8:31 am EST Monday 31 August 2015 (issued every 30 minutes, with the page automatically refreshed every 10 minutes)

About weather observations | Map of weather stations | Latest weather observations for TAS | Other Formats
Station Details ID: 091292 Name: SMITHTON AERODROME Lat: -40.83 Lon: 145.08 Height: 7.5 m
Data from the previous 72 hours. | See also: Recent months at Smithton
Date/Time
EST
Temp
°C
App
Temp
°C
Dew
Point
Rel
Hum
%
Delta-T
°C
Wind Press
QNH
hPa
Press
MSL
hPa
Rain
since 9 am
mm
Dir
 
Spd
km/h
Gust
km/h
Spd
kts
Gust
kts
31/08:30am 3.4 0.3 3.4 100 0.0 S 9 11 5 6 1021.6 - 0.0
31/08:00am 1.8 -1.6 1.8 100 0.0 S 9 11 5 6 1021.7 - 0.0
31/07:30am 0.0 -3.7 0.0 100 0.0 S 9 11 5 6 1021.5 - 0.0
31/07:00am -0.8 -4.6 -0.8 100 0.0 S 9 11 5 6 1021.4 - 0.0
31/06:30am -0.6 -4.4 -0.6 100 0.0 S 9 11 5 6 1021.3 - 0.0
31/06:00am -1.4 -5.3 -1.4 100 0.0 S 9 9 5 5 1021.2 1021.2 0.0
31/05:30am -0.6 -4.0 -0.6 100 0.0 S 7 9 4 5 1021.1 - 0.0
31/05:00am -0.9 -4.3 -0.9 100 0.0 S 7 9 4 5 1021.1 - 0.0
31/04:30am -0.3 -2.7 -0.3 100 0.0 S 2 6 1 3 1021.0 - 0.0
31/04:00am -0.4 -3.8 -0.4 100 0.0 S 7 9 4 5 1021.0 - 0.0
31/03:30am 0.0 -3.1 0.0 100 0.0 S 6 7 3 4 1021.1 - 0.0
31/03:00am 0.6 -2.6 0.6 100 0.0 S 7 9 4 5 1021.3 1021.3 0.0
31/02:30am 0.8 -2.2 0.8 100 0.0 S 6 7 3 4 1021.8 - 0.0
31/02:00am 0.5 -3.1 0.5 100 0.0 SSW 9 11 5 6 1022.2 - 0.0
31/01:30am 1.0 -1.2 1.0 100 0.0 E 2 7 1 4 1022.3 - 0.0
31/01:00am 0.7 -2.3 0.7 100 0.0 S 6 7 3 4 1022.4 - 0.0
31/12:30am 0.2 -2.5 0.2 100 0.0 S 4 7 2 4 1022.6 - 0.0
31/12:00am 0.9 -2.1 0.9 100 0.0 S 6 9 3 5 1022.6 1022.6 0.0
 
Date/Time
EST
Temp
°C
App
Temp
°C
Dew
Point
Rel
Hum
%
Delta-T
°C
Wind Press
QNH
hPa
Press
MSL
hPa
Rain
since 9 am
mm
Dir
 
Spd
km/h
Gust
km/h
Spd
kts
Gust
kts
30/11:30pm 1.6 -1.8 1.6 100 0.0 SSW 9 9 5 5 1022.9 - 0.0
30/11:00pm 0.8 -2.4 0.8 100 0.0 S 7 9 4 5 1023.0 - 0.0
30/10:30pm 2.4 -0.5 2.4 100 0.0 S 7 9 4 5 1023.1 - 0.0
30/10:00pm 2.5 -1.2 2.5 100 0.0 S 11 11 6 6 1023.1 - 0.0
30/09:30pm 2.4 -0.9 2.4 100 0.0 SW 9 11 5 6 1023.0 - 0.0
30/09:00pm 2.3 -0.7 2.2 99 0.0 W 7 9 4 5 1023.0 1023.0 0.0
30/08:30pm 3.1 0.8 3.0 99 0.0 WNW 4 9 2 5 1022.9 - 0.0
30/08:00pm 4.4 2.0 4.3 99 0.0 WNW 6 7 3 4 1022.7 - 0.0
30/07:30pm 5.1 2.7 4.5 96 0.3 WNW 6 7 3 4 1022.3 - 0.0
30/07:00pm 5.8 3.3 4.8 93 0.4 WNW 7 9 4 5 1022.2 - 0.0
30/06:30pm 6.1 3.5 4.3 88 0.8 NW 7 11 4 6 1022.1 - 0.0
30/06:00pm 7.4 4.1 4.4 81 1.3 NW 11 15 6 8 1022.0 1022.0 0.0
30/05:30pm 9.4 5.4 5.0 74 2.0 NW 15 20 8 11 1022.0 - 0.0
30/05:00pm 10.8 6.9 5.3 69 2.5 NW 15 19 8 10 1022.0 - 0.0
30/04:30pm 10.9 6.6 5.4 69 2.5 NNW 17 20 9 11 1022.0 - 0.0
30/04:00pm 11.3 7.4 5.4 67 2.7 N 15 17 8 9 1022.1 - 0.0
30/03:30pm 11.8 7.6 3.8 58 3.6 NNW 15 19 8 10 1022.3 - 0.0
30/03:00pm 11.7 7.6 4.4 61 3.3 N 15 19 8 10 1022.5 1022.5 0.0
30/02:30pm 12.5 9.8 5.4 62 3.3 NW 9 13 5 7 1022.7 - 0.0
30/02:00pm 11.6 7.8 3.9 59 3.4 NNW 13 19 7 10 1022.7 - 0.0
30/01:30pm 11.7 8.7 4.0 59 3.4 NW 9 13 5 7 1023.1 - 0.0
30/01:00pm 11.5 8.2 4.5 62 3.2 N 11 15 6 8 1023.3 - 0.0
30/12:30pm 11.3 8.2 3.8 60 3.3 N 9 15 5 8 1023.7 - 0.0
30/12:00pm 10.8 7.4 3.8 62 3.1 N 11 19 6 10 1024.2 1024.2 0.0
30/11:30am 10.6 7.5 3.6 62 3.1 ENE 9 15 5 8 1024.6 - 0.0
30/11:00am 10.3 7.5 3.3 62 3.0 NE 7 15 4 8 1024.8 - 0.0
30/10:30am 9.4 6.0 3.8 68 2.4 SSW 11 15 6 8 1024.9 - 0.0
30/10:00am 8.6 4.3 3.4 70 2.2 S 15 20 8 11 1025.1 - 0.0
30/09:30am 7.7 2.5 3.4 74 1.8 S 20 24 11 13 1025.2 - 0.0
30/09:00am 6.9 2.2 3.3 78 1.5 S 17 22 9 12 1025.3 1025.3 0.0
30/08:30am 6.0 1.7 3.3 83 1.1 S 15 20 8 11 1025.2 - 0.0
30/08:00am 4.8 1.2 2.8 87 0.8 S 11 15 6 8 1025.1 - 0.0
30/07:30am 3.4 -0.3 2.2 92 0.5 S 11 15 6 8 1024.7 - 0.0
30/07:00am 2.8 -1.0 1.6 92 0.5 S 11 13 6 7 1024.5 - 0.0
30/06:30am 3.1 -2.3 1.5 89 0.6 S 19 24 10 13 1024.2 - 0.0
30/06:00am 3.2 -3.0 2.0 92 0.5 SSW 24 28 13 15 1023.8 1023.8 0.0
30/05:30am 3.8 -2.0 2.3 90 0.6 SSW 22 26 12 14 1023.9 - 0.0
30/05:00am 3.7 -1.5 2.2 90 0.6 S 19 22 10 12 1023.8 - 0.0
30/04:30am 3.9 -1.9 2.4 90 0.6 S 22 26 12 14 1023.7 - 0.0
30/04:00am 4.4 -2.8 2.8 89 0.6 SSW 30 35 16 19 1023.6 - 0.0
30/03:30am 4.7 -1.4 3.0 89 0.7 SSW 24 33 13 18 1023.7 - 0.0
30/03:00am 4.9 -1.9 3.1 88 0.7 S 28 37 15 20 1023.6 1023.6 0.0
30/02:30am 5.3 -0.7 3.2 86 0.9 S 24 33 13 18 1023.9 - 0.0
30/02:00am 4.9 -0.1 3.4 90 0.6 SSW 19 26 10 14 1024.4 - 0.0
30/01:30am 4.9 -0.4 3.2 89 0.7 S 20 24 11 13 1024.7 - 0.0
30/01:00am 5.7 -0.2 3.7 87 0.8 S 24 32 13 17 1024.8 - 0.0
30/12:30am 5.8 -0.5 3.8 87 0.8 S 26 33 14 18 1024.8 - 0.0
30/12:00am 5.9 -0.8 3.9 87 0.8 S 28 33 15 18 1024.7 1024.7 0.0
 
Date/Time
EST
Temp
°C
App
Temp
°C
Dew
Point
Rel
Hum
%
Delta-T
°C
Wind Press
QNH
hPa
Press
MSL
hPa
Rain
since 9 am
mm
Dir
 
Spd
km/h
Gust
km/h
Spd
kts
Gust
kts
29/11:30pm 6.1 0.2 4.1 87 0.9 S 24 32 13 17 1024.9 - 0.0
29/11:00pm 6.2 0.0 4.4 88 0.8 S 26 33 14 18 1025.0 - 0.0
29/10:30pm 6.2 1.7 4.2 87 0.9 S 17 26 9 14 1025.4 - 0.0
29/10:00pm 6.3 0.9 4.6 89 0.7 SSW 22 32 12 17 1025.4 - 0.0
29/09:30pm 6.4 1.0 4.7 89 0.7 SSW 22 28 12 15 1025.2 - 0.0
29/09:00pm 5.6 0.7 4.2 91 0.6 SSW 19 22 10 12 1025.1 1025.1 0.0
29/08:30pm 7.0 2.9 4.5 84 1.1 S 15 20 8 11 1024.9 - 0.0
29/08:00pm 6.9 2.1 4.6 85 1.0 SSW 19 28 10 15 1024.7 - 0.0
29/07:30pm 7.7 3.7 4.7 81 1.3 SSW 15 20 8 11 1024.5 - 0.0
29/07:00pm 8.0 2.8 5.3 83 1.2 SSW 22 33 12 18 1024.2 - 0.0
29/06:30pm 8.5 2.5 5.1 79 1.5 SSW 26 30 14 16 1023.7 - 0.0
29/06:00pm 9.2 3.6 5.6 78 1.6 SSW 24 32 13 17 1023.5 1023.5 0.0
29/05:30pm 9.9 3.9 5.5 74 2.0 SSW 26 33 14 18 1023.2 - 0.0
29/05:00pm 11.0 4.3 5.7 70 2.4 SSW 30 43 16 23 1022.8 - 0.0
29/04:30pm 11.6 4.4 5.7 67 2.7 SSW 33 48 18 26 1022.6 - 0.0
29/04:00pm 12.1 5.0 6.4 68 2.7 SSW 33 46 18 25 1022.4 - 0.0
29/03:30pm 11.9 4.3 6.0 67 2.8 SSW 35 46 19 25 1022.5 - 0.0
29/03:14pm 12.6 5.2 6.9 68 2.7 SSW 35 54 19 29 1022.6 - 0.0
29/03:00pm 12.5 5.2 7.0 69 2.6 SSW 35 48 19 26 1022.4 1022.4 0.0
29/02:48pm 12.9 5.4 6.3 64 3.1 SSW 35 54 19 29 1022.2 - 0.0
29/02:30pm 12.6 4.7 6.0 64 3.1 S 37 54 20 29 1022.4 - 0.0
29/02:17pm 13.6 6.2 6.9 64 3.2 S 35 54 19 29 1022.2 - 0.0
29/02:00pm 13.5 5.7 6.8 64 3.2 SSW 37 48 20 26 1022.3 - 0.0
29/01:30pm 13.5 6.7 7.7 68 2.9 S 33 44 18 24 1022.4 - 0.0
29/01:00pm 13.4 6.1 7.2 66 3.0 S 35 50 19 27 1022.7 - 0.0
29/12:30pm 12.6 5.7 7.1 69 2.7 S 33 44 18 24 1023.1 - 0.0
29/12:00pm 12.5 6.2 7.4 71 2.5 S 30 46 16 25 1023.4 1023.4 0.0
29/11:30am 12.2 5.4 7.5 73 2.3 S 33 44 18 24 1023.4 - 0.0
29/11:02am 11.7 6.0 8.2 79 1.7 SSW 28 50 15 27 1023.3 - 0.0
29/11:00am 11.7 6.5 8.9 83 1.4 SSW 26 32 14 17 1023.3 - 0.0
29/10:30am 11.0 5.5 9.3 89 0.8 SW 28 39 15 21 1023.2 - 0.0
29/10:00am 10.5 4.5 8.8 89 0.8 SW 30 39 16 21 1023.0 - 0.0
29/09:30am 10.4 3.9 9.0 91 0.7 SSW 33 44 18 24 1023.1 - 0.0
29/09:00am 9.7 2.4 8.8 94 0.4 SSW 37 48 20 26 1022.9 1022.9 0.0
29/08:30am 9.2 2.6 8.4 95 0.4 SW 33 48 18 26 1022.9 - 0.0
29/08:00am 8.9 1.4 8.1 95 0.4 SW 37 50 20 27 1022.8 - 0.0
29/07:30am 8.5 1.4 7.9 96 0.3 SW 35 46 19 25 1022.8 - 0.0
29/07:00am 8.1 0.9 7.5 96 0.3 SW 35 46 19 25 1022.4 - 0.0
29/06:30am 7.7 -0.8 7.0 95 0.3 SW 41 54 22 29 1021.9 - 0.0
29/06:12am 7.6 -1.0 6.7 94 0.4 SSW 41 61 22 33 1021.5 - 0.0
29/06:00am 7.4 -0.8 6.5 94 0.4 SW 39 50 21 27 1021.9 1021.9 0.0
29/05:31am 7.5 -0.7 6.4 93 0.5 SSW 39 59 21 32 1021.7 - 0.0
29/05:30am 7.3 -0.6 6.1 92 0.5 SSW 37 50 20 27 1021.9 - 0.0
29/05:08am 7.5 -0.8 6.3 92 0.5 SW 39 57 21 31 1021.8 - 0.0
29/05:00am 7.7 -0.5 6.5 92 0.5 SW 39 52 21 28 1021.9 - 0.0
29/04:30am 7.2 -0.3 6.5 95 0.3 SW 35 48 19 26 1022.1 - 0.0
29/04:20am 7.0 0.1 6.3 95 0.3 SW 32 50 17 27 1021.9 - 0.0
29/04:00am 6.6 0.7 5.9 95 0.3 SW 26 37 14 20 1022.5 - 0.0
29/03:30am 6.1 0.1 5.5 96 0.3 WSW 26 39 14 21 1022.8 - 0.0
29/03:00am 5.9 -0.5 5.0 94 0.4 SW 28 35 15 19 1023.3 1023.3 0.0
29/02:30am 5.4 -1.1 4.5 94 0.4 SW 28 37 15 20 1023.8 - 0.0
29/02:00am 4.6 -1.4 3.6 93 0.4 SW 24 32 13 17 1024.4 - 0.0
29/01:30am 4.3 -1.6 3.9 97 0.2 WSW 24 35 13 19 1024.9 - 0.0
29/01:00am 3.6 -1.5 2.9 95 0.3 SW 19 24 10 13 1025.4 - 0.0
29/12:30am 3.3 -1.5 2.6 95 0.3 SW 17 20 9 11 1025.8 - 0.0
29/12:00am 2.3 -2.3 1.7 96 0.2 WSW 15 19 8 10 1026.4 1026.4 0.0
 
Date/Time
EST
Temp
°C
App
Temp
°C
Dew
Point
Rel
Hum
%
Delta-T
°C
Wind Press
QNH
hPa
Press
MSL
hPa
Rain
since 9 am
mm
Dir
 
Spd
km/h
Gust
km/h
Spd
kts
Gust
kts
28/11:30pm 1.7 -3.0 1.1 96 0.2 WSW 15 17 8 9 1026.7 - 0.0
28/11:00pm 0.9 -3.7 -0.9 88 0.6 SW 13 15 7 8 1027.2 - 0.0
28/10:30pm 2.5 -1.3 -0.6 80 1.1 SSW 9 13 5 7 1027.5 - 0.0
28/10:00pm 3.7 -0.7 0.4 79 1.2 SSW 13 20 7 11 1027.6 - 0.0
28/09:30pm 2.8 -0.6 -0.5 79 1.2 SSW 7 9 4 5 1028.0 - 0.0
28/09:00pm 2.4 -2.2 -1.0 78 1.2 SSW 13 15 7 8 1027.9 1027.9 0.0
28/08:30pm 3.5 -1.4 -0.7 74 1.5 S 15 17 8 9 1027.9 - 0.0
28/08:00pm 4.8 -0.9 -0.4 69 2.0 SSW 19 22 10 12 1027.6 - 0.0
28/07:30pm 5.3 -1.3 -0.5 66 2.2 S 24 30 13 16 1027.1 - 0.0
28/07:00pm 6.1 -0.8 0.0 65 2.3 SSW 26 35 14 19 1026.7 - 0.0
28/06:30pm 6.4 -0.1 0.5 66 2.3 SSW 24 35 13 19 1026.1 - 0.0
28/06:00pm 7.0 1.4 1.1 66 2.3 SSW 20 30 11 16 1025.7 1025.7 0.0
28/05:30pm 7.9 1.1 1.1 62 2.7 SSW 26 35 14 19 1025.6 - 0.0
28/05:00pm 8.8 0.8 1.7 61 2.9 S 33 46 18 25 1025.1 - 0.0
28/04:30pm 10.2 2.8 1.8 56 3.5 S 30 39 16 21 1024.9 - 0.0
28/04:00pm 11.1 4.4 1.4 51 4.1 S 26 33 14 18 1024.7 - 0.0
28/03:30pm 11.5 4.2 -0.3 44 4.8 S 28 35 15 19 1024.5 - 0.0
28/03:00pm 11.9 4.7 0.4 45 4.7 SSW 28 33 15 18 1024.4 1024.4 0.0
28/02:30pm 11.9 4.7 1.0 47 4.6 SSW 28 39 15 21 1024.4 - 0.0
28/02:00pm 12.0 5.7 1.6 49 4.4 S 24 35 13 19 1024.5 - 0.0
28/01:30pm 12.1 5.4 1.7 49 4.4 S 26 35 14 19 1024.7 - 0.0
28/01:00pm 11.7 5.0 1.6 50 4.3 SSW 26 33 14 18 1025.0 - 0.0
28/12:30pm 11.8 4.6 0.6 46 4.6 S 28 35 15 19 1025.4 - 0.0
28/12:00pm 11.3 4.0 2.3 54 3.8 S 30 39 16 21 1025.7 1025.7 0.0
28/11:30am 10.8 4.5 3.6 61 3.2 S 26 33 14 18 1026.0 - 0.0
28/11:00am 10.4 4.2 4.5 67 2.6 S 26 35 14 19 1026.1 - 0.0
28/10:30am 9.8 4.2 5.4 74 2.0 S 24 33 13 18 1026.1 - 0.0
28/10:00am 8.7 2.6 4.7 76 1.8 S 26 33 14 18 1026.1 - 0.0
28/09:30am 8.2 2.2 5.1 81 1.4 SSE 26 37 14 20 1026.0 - 0.0
28/09:00am 7.7 2.2 6.0 89 0.8 S 24 33 13 18 1025.7 1025.7 0.0

Other Formats:

Comma delimited format used in spreadsheet applications
http://www.bom.gov.au/fwo/IDT60801/IDT60801.94953.axf

JavaScript Object Notation format (JSON) in row-major order
http://www.bom.gov.au/fwo/IDT60801/IDT60801.94953.json